DLH772 EDDM-VTBS
Flight info
| Callsign | DLH772 |
|---|---|
| Flight time | N/A |
| Altitude | 23000 |
| Route | KIRDI2E KIRDI DCT BUWOQ DCT OBFEZ/N0493F350 DCT STEIN DCT TEGRI/N0491F370 DCT DINRO N743 UDROS DCT BAMUP DCT ROLIN DCT TAGAR DCT BT DCT BARAD M747 SUBUT T923 ERLEV M11 RODAR A909 TUNEK B143 KRS A240 KESEK/N0493F390 A240 INRAK B449 RANAH L750 MERUN G452 LKN R460 OPESU/N0492F410 R460 CEA L507 IGONI WILLA1C |
| Aircraft | A359/H-SDE2E3GHIJ3J4J5LM1ORWXY/LB1D1 |
Departure
| Time | 2026-04-30 20:46 |
|---|---|
| Airport | Munich Airport (EDDM) |
Arrival
| Time | N/A |
|---|---|
| Airport | Suvarnabhumi Airport (VTBS) |
| Time | Latitude | Longitude | Altitude | Speed | Heading |
|---|---|---|---|---|---|
| 2026-04-30 20:24 | 48.35317 | 11.79740 | 1473 ft | 0 kts | 83° |
| 2026-04-30 20:34 | 48.35316 | 11.79727 | 1473 ft | 2 kts | 83° |
| 2026-04-30 20:34 | 48.35313 | 11.79689 | 1461 ft | 3 kts | 91° |
| 2026-04-30 20:35 | 48.35316 | 11.79659 | 1461 ft | 3 kts | 112° |
| 2026-04-30 20:35 | 48.35326 | 11.79633 | 1461 ft | 3 kts | 133° |
| 2026-04-30 20:35 | 48.35352 | 11.79606 | 1461 ft | 0 kts | 167° |
| 2026-04-30 20:37 | 48.35344 | 11.79608 | 1461 ft | 6 kts | 168° |
| 2026-04-30 20:37 | 48.35254 | 11.79626 | 1466 ft | 20 kts | 174° |
| 2026-04-30 20:37 | 48.35115 | 11.79651 | 1468 ft | 20 kts | 173° |
| 2026-04-30 20:38 | 48.34974 | 11.79676 | 1464 ft | 20 kts | 174° |
| 2026-04-30 20:38 | 48.34836 | 11.79692 | 1470 ft | 18 kts | 187° |
| 2026-04-30 20:38 | 48.34787 | 11.79553 | 1466 ft | 16 kts | 264° |
| 2026-04-30 20:39 | 48.34764 | 11.79219 | 1470 ft | 16 kts | 264° |
| 2026-04-30 20:39 | 48.34752 | 11.79047 | 1463 ft | 17 kts | 264° |
| 2026-04-30 20:39 | 48.34739 | 11.78868 | 1473 ft | 17 kts | 264° |
| 2026-04-30 20:40 | 48.34703 | 11.78499 | 1471 ft | 18 kts | 259° |
| 2026-04-30 20:40 | 48.34685 | 11.78309 | 1466 ft | 18 kts | 264° |
| 2026-04-30 20:40 | 48.34676 | 11.78115 | 1472 ft | 19 kts | 266° |
| 2026-04-30 20:41 | 48.34652 | 11.77713 | 1463 ft | 20 kts | 264° |
| 2026-04-30 20:41 | 48.34637 | 11.77510 | 1462 ft | 20 kts | 263° |
| 2026-04-30 20:41 | 48.34618 | 11.77301 | 1469 ft | 20 kts | 262° |
| 2026-04-30 20:41 | 48.34598 | 11.77093 | 1472 ft | 20 kts | 262° |
| 2026-04-30 20:42 | 48.34581 | 11.76880 | 1464 ft | 21 kts | 263° |
| 2026-04-30 20:42 | 48.34564 | 11.76665 | 1462 ft | 21 kts | 264° |
| 2026-04-30 20:42 | 48.34531 | 11.76230 | 1472 ft | 21 kts | 263° |
| 2026-04-30 20:43 | 48.34515 | 11.76009 | 1470 ft | 21 kts | 264° |
| 2026-04-30 20:43 | 48.34501 | 11.75788 | 1469 ft | 21 kts | 264° |
| 2026-04-30 20:43 | 48.34487 | 11.75562 | 1466 ft | 22 kts | 264° |
| 2026-04-30 20:44 | 48.34441 | 11.75116 | 1466 ft | 21 kts | 245° |
| 2026-04-30 20:44 | 48.34318 | 11.75068 | 1468 ft | 19 kts | 177° |
| 2026-04-30 20:44 | 48.34084 | 11.75204 | 1472 ft | 16 kts | 104° |
| 2026-04-30 20:45 | 48.34121 | 11.75828 | 1468 ft | 74 kts | 83° |
| 2026-04-30 20:45 | 48.34201 | 11.76907 | 1471 ft | 134 kts | 84° |
| 2026-04-30 20:45 | 48.34327 | 11.78560 | 1516 ft | 182 kts | 84° |
| 2026-04-30 20:46 | 48.34747 | 11.84452 | 3747 ft | 204 kts | 84° |
| 2026-04-30 20:46 | 48.34912 | 11.86664 | 4459 ft | 224 kts | 84° |
| 2026-04-30 20:47 | 48.34418 | 11.91438 | 6241 ft | 248 kts | 116° |
| 2026-04-30 20:47 | 48.33609 | 11.93817 | 7130 ft | 258 kts | 114° |
| 2026-04-30 20:48 | 48.32247 | 11.98890 | 9039 ft | 265 kts | 101° |
| 2026-04-30 20:48 | 48.31936 | 12.01606 | 10001 ft | 267 kts | 96° |
| 2026-04-30 20:48 | 48.31728 | 12.04408 | 10799 ft | 274 kts | 93° |
| 2026-04-30 20:48 | 48.31580 | 12.07305 | 11375 ft | 286 kts | 91° |
| 2026-04-30 20:49 | 48.31460 | 12.10386 | 11819 ft | 302 kts | 91° |
| 2026-04-30 20:49 | 48.31348 | 12.13610 | 12124 ft | 323 kts | 91° |
| 2026-04-30 20:49 | 48.31225 | 12.17089 | 12419 ft | 344 kts | 91° |
| 2026-04-30 20:50 | 48.30926 | 12.24564 | 13551 ft | 368 kts | 91° |
| 2026-04-30 20:50 | 48.30758 | 12.28436 | 14323 ft | 374 kts | 91° |
| 2026-04-30 20:50 | 48.30583 | 12.32367 | 15052 ft | 379 kts | 91° |
| 2026-04-30 20:50 | 48.30406 | 12.36305 | 15777 ft | 383 kts | 91° |
| 2026-04-30 20:51 | 48.30225 | 12.40334 | 16544 ft | 386 kts | 90° |
| 2026-04-30 20:51 | 48.29858 | 12.48401 | 18112 ft | 391 kts | 90° |
| 2026-04-30 20:51 | 48.29671 | 12.52481 | 18895 ft | 391 kts | 90° |
| 2026-04-30 20:52 | 48.29482 | 12.56571 | 19585 ft | 393 kts | 90° |
| 2026-04-30 20:52 | 48.29292 | 12.60709 | 20022 ft | 401 kts | 90° |
| 2026-04-30 20:52 | 48.28903 | 12.69211 | 20808 ft | 417 kts | 90° |
| 2026-04-30 20:53 | 48.28696 | 12.73592 | 21324 ft | 422 kts | 89° |
| 2026-04-30 20:53 | 48.28484 | 12.78007 | 21971 ft | 423 kts | 89° |
| 2026-04-30 20:53 | 48.28272 | 12.82350 | 22628 ft | 423 kts | 89° |
| 2026-04-30 20:54 | 48.27837 | 12.91159 | 23996 ft | 422 kts | 89° |
| 2026-04-30 20:54 | 48.27619 | 12.95539 | 24582 ft | 420 kts | 89° |
| 2026-04-30 20:54 | 48.27399 | 12.99909 | 25180 ft | 418 kts | 88° |
| 2026-04-30 20:55 | 48.26963 | 13.08540 | 26412 ft | 413 kts | 88° |
| 2026-04-30 20:55 | 48.26744 | 13.12844 | 27058 ft | 410 kts | 88° |
| 2026-04-30 20:55 | 48.26527 | 13.17086 | 27645 ft | 409 kts | 88° |
| 2026-04-30 20:56 | 48.26091 | 13.25572 | 28730 ft | 407 kts | 88° |
| 2026-04-30 20:56 | 48.25871 | 13.29794 | 29284 ft | 405 kts | 87° |
| 2026-04-30 20:56 | 48.25425 | 13.38187 | 30433 ft | 401 kts | 87° |
| 2026-04-30 20:57 | 48.25203 | 13.42308 | 30925 ft | 398 kts | 87° |
| 2026-04-30 20:57 | 48.24979 | 13.46467 | 31306 ft | 398 kts | 87° |
| 2026-04-30 20:57 | 48.24759 | 13.50614 | 31402 ft | 405 kts | 87° |
| 2026-04-30 20:58 | 48.24305 | 13.59198 | 31403 ft | 422 kts | 87° |
| 2026-04-30 20:58 | 48.24064 | 13.63628 | 31402 ft | 430 kts | 88° |
| 2026-04-30 20:58 | 48.23556 | 13.72762 | 31396 ft | 445 kts | 88° |
| 2026-04-30 20:59 | 48.23023 | 13.82055 | 31617 ft | 449 kts | 88° |
| 2026-04-30 20:59 | 48.22753 | 13.86673 | 31865 ft | 447 kts | 88° |
| 2026-04-30 21:00 | 48.22106 | 13.95990 | 32385 ft | 450 kts | 92° |
| 2026-04-30 21:00 | 48.20318 | 14.05072 | 32912 ft | 461 kts | 103° |
| 2026-04-30 21:01 | 48.17792 | 14.13963 | 33398 ft | 466 kts | 105° |
| 2026-04-30 21:01 | 48.16451 | 14.18411 | 33410 ft | 470 kts | 106° |
| 2026-04-30 21:01 | 48.13743 | 14.27390 | 33585 ft | 472 kts | 105° |
| 2026-04-30 21:02 | 48.12416 | 14.31819 | 33849 ft | 470 kts | 105° |
| 2026-04-30 21:02 | 48.11087 | 14.36284 | 34131 ft | 469 kts | 105° |
| 2026-04-30 21:02 | 48.09770 | 14.40729 | 34408 ft | 467 kts | 105° |
| 2026-04-30 21:02 | 48.08447 | 14.45197 | 34646 ft | 466 kts | 105° |
| 2026-04-30 21:03 | 48.07146 | 14.49591 | 34882 ft | 466 kts | 105° |
| 2026-04-30 21:03 | 48.05830 | 14.54031 | 35128 ft | 465 kts | 106° |
| 2026-04-30 21:03 | 48.04517 | 14.58451 | 35369 ft | 464 kts | 106° |
| 2026-04-30 21:03 | 48.03204 | 14.62858 | 35624 ft | 463 kts | 107° |
| 2026-04-30 21:04 | 48.01893 | 14.67250 | 35871 ft | 463 kts | 107° |
| 2026-04-30 21:04 | 48.00580 | 14.71636 | 36120 ft | 462 kts | 107° |
| 2026-04-30 21:04 | 47.97971 | 14.80339 | 36421 ft | 464 kts | 107° |
| 2026-04-30 21:05 | 47.95308 | 14.89209 | 36428 ft | 472 kts | 108° |
| 2026-04-30 21:05 | 47.92590 | 14.98212 | 36525 ft | 478 kts | 108° |
| 2026-04-30 21:06 | 47.91220 | 15.02727 | 36771 ft | 476 kts | 108° |
| 2026-04-30 21:06 | 47.89868 | 15.07171 | 37027 ft | 474 kts | 108° |
| 2026-04-30 21:06 | 47.88499 | 15.11664 | 37284 ft | 472 kts | 109° |
| 2026-04-30 21:06 | 47.87149 | 15.16088 | 37543 ft | 470 kts | 109° |
| 2026-04-30 21:07 | 47.85792 | 15.20527 | 37810 ft | 467 kts | 109° |
| 2026-04-30 21:07 | 47.84452 | 15.24908 | 38073 ft | 464 kts | 109° |
| 2026-04-30 21:07 | 47.83126 | 15.29236 | 38337 ft | 461 kts | 109° |
| 2026-04-30 21:07 | 47.81794 | 15.33576 | 38617 ft | 458 kts | 110° |
| 2026-04-30 21:08 | 47.80474 | 15.37906 | 38895 ft | 454 kts | 109° |
| 2026-04-30 21:08 | 47.79188 | 15.42161 | 39157 ft | 451 kts | 109° |
| 2026-04-30 21:08 | 47.77916 | 15.46377 | 39303 ft | 449 kts | 110° |
| 2026-04-30 21:08 | 47.76631 | 15.50643 | 39349 ft | 450 kts | 110° |
| 2026-04-30 21:09 | 47.74076 | 15.59086 | 39437 ft | 451 kts | 110° |
| 2026-04-30 21:09 | 47.71481 | 15.67614 | 39449 ft | 454 kts | 110° |
| 2026-04-30 21:10 | 47.68867 | 15.76177 | 39450 ft | 457 kts | 110° |
| 2026-04-30 21:10 | 47.66211 | 15.84829 | 39443 ft | 462 kts | 110° |
| 2026-04-30 21:11 | 47.63540 | 15.93498 | 39445 ft | 467 kts | 110° |
| 2026-04-30 21:11 | 47.60824 | 16.02287 | 39435 ft | 470 kts | 110° |
| 2026-04-30 21:12 | 47.58071 | 16.11172 | 39430 ft | 475 kts | 110° |
| 2026-04-30 21:12 | 47.55299 | 16.20079 | 39426 ft | 479 kts | 111° |
| 2026-04-30 21:13 | 47.52492 | 16.29066 | 39423 ft | 483 kts | 111° |
| 2026-04-30 21:13 | 47.49659 | 16.38106 | 39415 ft | 487 kts | 111° |
| 2026-04-30 21:14 | 47.46796 | 16.47209 | 39412 ft | 491 kts | 111° |
| 2026-04-30 21:14 | 47.43898 | 16.56388 | 39408 ft | 495 kts | 111° |
| 2026-04-30 21:15 | 47.41377 | 16.65870 | 39396 ft | 495 kts | 106° |
| 2026-04-30 21:15 | 47.39106 | 16.75442 | 39398 ft | 498 kts | 105° |
| 2026-04-30 21:16 | 47.36842 | 16.85112 | 39396 ft | 500 kts | 105° |
| 2026-04-30 21:16 | 47.34556 | 16.94807 | 39376 ft | 494 kts | 106° |
| 2026-04-30 21:17 | 47.33436 | 16.99509 | 39390 ft | 480 kts | 106° |
| 2026-04-30 21:17 | 47.32342 | 17.04082 | 39391 ft | 469 kts | 106° |
| 2026-04-30 21:17 | 47.30195 | 17.13064 | 39373 ft | 462 kts | 106° |
| 2026-04-30 21:18 | 47.28068 | 17.21954 | 39377 ft | 463 kts | 106° |
| 2026-04-30 21:18 | 47.25913 | 17.30917 | 39377 ft | 463 kts | 106° |
| 2026-04-30 21:19 | 47.23757 | 17.39835 | 39380 ft | 464 kts | 106° |
| 2026-04-30 21:19 | 47.21575 | 17.48826 | 39379 ft | 468 kts | 106° |
| 2026-04-30 21:20 | 47.19748 | 17.56325 | 39378 ft | 472 kts | 107° |
| 2026-04-30 21:20 | 47.17518 | 17.65440 | 39376 ft | 476 kts | 107° |
| 2026-04-30 21:21 | 47.15253 | 17.74660 | 39377 ft | 480 kts | 107° |
| 2026-04-30 21:22 | 47.11815 | 17.88585 | 39376 ft | 487 kts | 107° |
| 2026-04-30 21:23 | 47.07136 | 18.07396 | 39375 ft | 495 kts | 107° |
| 2026-04-30 21:23 | 47.03614 | 18.21430 | 39362 ft | 474 kts | 107° |
| 2026-04-30 21:24 | 47.02478 | 18.25930 | 39369 ft | 463 kts | 107° |
| 2026-04-30 21:24 | 47.01370 | 18.30320 | 39368 ft | 460 kts | 107° |
| 2026-04-30 21:24 | 46.99140 | 18.39159 | 39371 ft | 461 kts | 107° |
| 2026-04-30 21:25 | 46.95796 | 18.52346 | 39369 ft | 462 kts | 107° |
| 2026-04-30 21:26 | 46.92412 | 18.65592 | 39371 ft | 463 kts | 108° |
| 2026-04-30 21:27 | 46.89026 | 18.78769 | 39372 ft | 463 kts | 108° |
| 2026-04-30 21:27 | 46.86750 | 18.87585 | 39374 ft | 465 kts | 108° |
| 2026-04-30 21:28 | 46.83277 | 19.00979 | 39369 ft | 472 kts | 108° |
| 2026-04-30 21:29 | 46.79760 | 19.14456 | 39373 ft | 478 kts | 108° |
| 2026-04-30 21:30 | 46.73730 | 19.37386 | 39370 ft | 489 kts | 108° |
| 2026-04-30 21:31 | 46.67525 | 19.60750 | 39371 ft | 499 kts | 109° |
| 2026-04-30 21:32 | 46.63727 | 19.74933 | 39369 ft | 505 kts | 109° |
| 2026-04-30 21:32 | 46.61150 | 19.84511 | 39361 ft | 508 kts | 109° |
| 2026-04-30 21:33 | 46.57677 | 19.99051 | 39357 ft | 510 kts | 105° |
| 2026-04-30 21:34 | 46.55496 | 20.08848 | 39352 ft | 511 kts | 105° |
| 2026-04-30 21:34 | 46.52199 | 20.23672 | 39345 ft | 512 kts | 105° |
| 2026-04-30 21:35 | 46.50012 | 20.33513 | 39343 ft | 513 kts | 105° |
| 2026-04-30 21:35 | 46.47827 | 20.43341 | 39343 ft | 513 kts | 105° |
| 2026-04-30 21:36 | 46.45610 | 20.53204 | 39338 ft | 514 kts | 107° |
| 2026-04-30 21:37 | 46.40218 | 20.72462 | 39342 ft | 516 kts | 110° |
| 2026-04-30 21:37 | 46.37458 | 20.82002 | 39337 ft | 516 kts | 111° |
| 2026-04-30 21:38 | 46.34687 | 20.91581 | 39332 ft | 517 kts | 111° |
| 2026-04-30 21:38 | 46.31912 | 21.01183 | 39326 ft | 517 kts | 111° |
| 2026-04-30 21:39 | 46.29145 | 21.10764 | 39324 ft | 517 kts | 111° |
| 2026-04-30 21:39 | 46.26351 | 21.20387 | 39319 ft | 517 kts | 111° |
| 2026-04-30 21:40 | 46.23573 | 21.29961 | 39320 ft | 518 kts | 111° |
| 2026-04-30 21:40 | 46.20777 | 21.39564 | 39318 ft | 518 kts | 111° |
| 2026-04-30 21:41 | 46.17981 | 21.49114 | 39318 ft | 518 kts | 111° |
| 2026-04-30 21:41 | 46.15167 | 21.58687 | 39334 ft | 519 kts | 111° |
| 2026-04-30 21:42 | 46.12327 | 21.68309 | 39326 ft | 519 kts | 111° |
| 2026-04-30 21:42 | 46.09503 | 21.77842 | 39328 ft | 520 kts | 111° |
| 2026-04-30 21:43 | 46.06657 | 21.87412 | 39337 ft | 520 kts | 111° |
| 2026-04-30 21:43 | 46.03793 | 21.97005 | 39329 ft | 521 kts | 111° |
| 2026-04-30 21:44 | 46.00921 | 22.06587 | 39334 ft | 521 kts | 112° |
| 2026-04-30 21:44 | 45.98050 | 22.16131 | 39343 ft | 521 kts | 112° |
| 2026-04-30 21:45 | 45.95158 | 22.25709 | 39338 ft | 522 kts | 112° |
| 2026-04-30 21:45 | 45.92254 | 22.35288 | 39343 ft | 522 kts | 112° |
| 2026-04-30 21:46 | 45.89350 | 22.44833 | 39348 ft | 523 kts | 112° |
| 2026-04-30 21:46 | 45.86436 | 22.54372 | 39346 ft | 523 kts | 112° |
| 2026-04-30 21:47 | 45.83504 | 22.63934 | 39359 ft | 524 kts | 112° |
| 2026-04-30 21:47 | 45.80571 | 22.73465 | 39351 ft | 524 kts | 112° |
| 2026-04-30 21:48 | 45.77630 | 22.82987 | 39352 ft | 524 kts | 112° |
| 2026-04-30 21:48 | 45.74657 | 22.92577 | 39364 ft | 524 kts | 112° |
| 2026-04-30 21:49 | 45.71704 | 23.02065 | 39356 ft | 524 kts | 113° |
| 2026-04-30 21:49 | 45.68726 | 23.11597 | 39360 ft | 525 kts | 113° |
| 2026-04-30 21:50 | 45.65749 | 23.21094 | 39364 ft | 525 kts | 113° |
| 2026-04-30 21:50 | 45.62736 | 23.30667 | 39360 ft | 525 kts | 113° |
| 2026-04-30 21:51 | 45.59733 | 23.40173 | 39371 ft | 525 kts | 113° |
| 2026-04-30 21:51 | 45.56733 | 23.49635 | 39370 ft | 526 kts | 113° |
| 2026-04-30 21:52 | 45.53713 | 23.59126 | 39370 ft | 526 kts | 114° |
| 2026-04-30 21:52 | 45.50675 | 23.68637 | 39369 ft | 527 kts | 114° |
| 2026-04-30 21:53 | 45.47623 | 23.78157 | 39365 ft | 527 kts | 114° |
| 2026-04-30 21:53 | 45.44560 | 23.87675 | 39364 ft | 527 kts | 114° |